»·PEaware :: AAL822 KSAN-KPHX

AAL822 :: KSAN-KPHX

FLIGHT INFORMATION

Flight Status: Arrived
Operator:
American Airlines
More flights by this operator :: More flights under this callsign
Pilot: Max W. (2591)
Aircraft: AIRBUS A320
(A320)
More flights by this aircraft type
Origin: KSAN San Diego Intl-Lindbergh
United States
Destination: KPHX Phoenix Sky Harbor Intl
United States
More flights between these airports :: More routes between these airports
Route: +ZZOOO2 IPL J18 BZA HOGGZ HYDRR1
File this flight plan on PilotEdge
Remarks:
Altitude:
(Current/Filed)
29,000ft
Speed:
(Current/Filed)
450kts
Departed: 13-Sep-18 06:18 PM
Arrived: 13-Sep-18 07:13 PM
Distance/Time
Traveled:
264nm/0:55
Distance/Time
To Go:
Arrived

Flight Plot

Page will automatically refresh every two minutes.

Flight plan parsing failed; only flown route is shown


Map Options




Map Legend


Flown Route
Filed Route
Departure Airport
Arrival Airport
Navaid (VOR, NDB)
Fix

Horizontal Profiles

Position Reports

Time Latitude Longitude Heading Altitude Ground
Speed
13-Sep-18 17:52 32.733126 -117.195683 226 22ft 0kts
13-Sep-18 17:53 32.733126 -117.195683 226 22ft 0kts
13-Sep-18 17:54 32.733126 -117.195683 226 22ft 0kts
13-Sep-18 17:55 32.733126 -117.195683 226 22ft 0kts
13-Sep-18 17:56 32.733126 -117.195683 226 22ft 0kts
13-Sep-18 17:57 32.733126 -117.195683 226 22ft 0kts
13-Sep-18 17:58 32.733126 -117.195683 226 22ft 0kts
13-Sep-18 17:59 32.733126 -117.195683 226 22ft 0kts
13-Sep-18 18:00 32.733126 -117.195683 226 22ft 0kts
13-Sep-18 18:01 32.733126 -117.195683 226 22ft 0kts
13-Sep-18 18:02 32.733126 -117.195683 226 22ft 0kts
13-Sep-18 18:03 32.733126 -117.195683 226 22ft 0kts
13-Sep-18 18:04 32.733126 -117.195683 226 22ft 0kts
13-Sep-18 18:05 32.733126 -117.195683 226 22ft 0kts
13-Sep-18 18:06 32.733181 -117.195617 226 22ft 2kts
13-Sep-18 18:07 32.733246 -117.194957 298 22ft 2kts
13-Sep-18 18:08 32.732752 -117.194634 6 22ft 2kts
13-Sep-18 18:09 32.732552 -117.194708 25 22ft 0kts
13-Sep-18 18:10 32.732553 -117.194708 25 22ft 0kts
13-Sep-18 18:11 32.732667 -117.194638 34 22ft 0kts
13-Sep-18 18:12 32.733360 -117.193129 103 22ft 11kts
13-Sep-18 18:13 32.732713 -117.190528 106 22ft 6kts
13-Sep-18 18:14 32.732333 -117.188861 105 22ft 3kts
13-Sep-18 18:15 32.731720 -117.186337 106 22ft 14kts
13-Sep-18 18:16 32.730343 -117.180739 108 21ft 16kts
13-Sep-18 18:17 32.729518 -117.177440 106 22ft 8kts
13-Sep-18 18:18 32.729462 -117.177217 106 22ft 0kts
13-Sep-18 18:19 32.729437 -117.176944 86 22ft 6kts
13-Sep-18 18:20 32.730847 -117.178464 286 23ft 70kts
13-Sep-18 18:21 32.742755 -117.226116 284 1556ft 175kts
13-Sep-18 18:22 32.755714 -117.289844 261 3464ft 235kts
13-Sep-18 18:23 32.699477 -117.317446 148 5910ft 280kts
13-Sep-18 18:24 32.639643 -117.254202 130 8661ft 298kts
13-Sep-18 18:25 32.623186 -117.156484 95 11123ft 319kts
13-Sep-18 18:26 32.613891 -117.049929 95 13622ft 331kts
13-Sep-18 18:27 32.603919 -116.939224 95 15590ft 354kts
13-Sep-18 18:28 32.621355 -116.817470 75 16371ft 400kts
13-Sep-18 18:29 32.639193 -116.681321 82 17375ft 428kts
13-Sep-18 18:30 32.653018 -116.539979 82 18786ft 438kts
13-Sep-18 18:31 32.666954 -116.395285 82 20088ft 447kts
13-Sep-18 18:32 32.680860 -116.249033 83 21266ft 455kts
13-Sep-18 18:33 32.694922 -116.099227 83 22355ft 462kts
13-Sep-18 18:34 32.709028 -115.947413 83 23367ft 469kts
13-Sep-18 18:35 32.722694 -115.799236 83 25435ft 449kts
13-Sep-18 18:36 32.736001 -115.652296 83 26504ft 455kts
13-Sep-18 18:37 32.748877 -115.501957 87 27485ft 462kts
13-Sep-18 18:38 32.752703 -115.349787 89 28384ft 468kts
13-Sep-18 18:39 32.756242 -115.196308 89 28960ft 471kts
13-Sep-18 18:40 32.759660 -115.038750 89 28957ft 486kts
13-Sep-18 18:41 32.762959 -114.877906 89 28957ft 489kts
13-Sep-18 18:42 32.766043 -114.716905 89 28957ft 488kts
13-Sep-18 18:43 32.768827 -114.555747 89 28957ft 488kts
13-Sep-18 18:44 32.771005 -114.394767 89 28958ft 488kts
13-Sep-18 18:45 32.772961 -114.240968 89 27841ft 461kts
13-Sep-18 18:46 32.774642 -114.093157 89 25086ft 446kts
13-Sep-18 18:47 32.788357 -113.947197 82 24961ft 446kts
13-Sep-18 18:48 32.804295 -113.801155 82 24961ft 445kts
13-Sep-18 18:49 32.833650 -113.665653 49 24732ft 410kts
13-Sep-18 18:50 32.896378 -113.580935 46 23952ft 410kts
13-Sep-18 18:51 32.983946 -113.462994 46 22844ft 409kts
13-Sep-18 18:52 33.046263 -113.378749 46 22047ft 406kts
13-Sep-18 18:53 33.117557 -113.282383 46 21053ft 400kts
13-Sep-18 18:54 33.201631 -113.168454 46 19843ft 392kts
13-Sep-18 18:55 33.259888 -113.089042 50 19061ft 358kts
13-Sep-18 18:56 33.276640 -112.977135 87 17510ft 349kts
13-Sep-18 18:57 33.279448 -112.864279 87 15412ft 334kts
13-Sep-18 18:58 33.286731 -112.755804 82 13977ft 325kts
13-Sep-18 18:59 33.296681 -112.649721 82 12551ft 318kts
13-Sep-18 19:00 33.306331 -112.545965 82 11185ft 311kts
13-Sep-18 19:01 33.315837 -112.442758 82 11114ft 312kts
13-Sep-18 19:02 33.324954 -112.342935 82 11099ft 287kts
13-Sep-18 19:03 33.333134 -112.253641 83 10385ft 262kts
13-Sep-18 19:04 33.340867 -112.168010 83 9319ft 258kts
13-Sep-18 19:05 33.347622 -112.082856 91 9005ft 249kts
13-Sep-18 19:06 33.346487 -112.002586 91 7887ft 247kts
13-Sep-18 19:07 33.345560 -111.920241 89 6815ft 247kts
13-Sep-18 19:08 33.346657 -111.839048 89 5750ft 241kts
13-Sep-18 19:09 33.367790 -111.770609 15 4322ft 233kts
13-Sep-18 19:10 33.418100 -111.794711 323 4118ft 185kts
13-Sep-18 19:11 33.440426 -111.842975 270 3560ft 163kts
13-Sep-18 19:12 33.440763 -111.893074 268 2742ft 148kts
13-Sep-18 19:13 33.440847 -111.942554 268 1937ft 146kts
13-Sep-18 19:14 33.440814 -111.991446 269 1167ft 144kts
13-Sep-18 19:15 33.439920 -112.014052 213 1118ft 12kts
13-Sep-18 19:16 33.439021 -112.010216 91 1118ft 28kts
13-Sep-18 19:17 33.439014 -112.001083 89 1118ft 26kts
13-Sep-18 19:18 33.438395 -111.998158 155 1118ft 6kts
13-Sep-18 19:19 33.438158 -111.997878 117 1118ft 0kts

Navigation Log

Ident Type
Flight plan parsing failed, navigation log unavailable